Hauptseite
METAR-TAF:

METAR-TAF

Flughäfen :

Flughafen Bern-Belp

Bern, Schweiz

Breite: 46-55N, Länge: 007-30E, Höhe: 505 m

Beobachtung

Neuester Wetterbericht von vor 29 Minuten, um 13:20 UTC
Wind 5 kt aus Nordwest, variierte zwischen West/Südwest und Nord
Temperatur 26°C
Luftfeuchtigkeit 51%
Luftdruck 1019 hPa
Sichtweite 10 km oder mehr
keine Wolken unter 1500 m und keine Kumulonimbus oder Gewitterwolken

METAR: LSZB 061320Z 31005KT 250V360 CAVOK 26/15 Q1019 NOSIG

Zeit: 15:49 (13:49 UTC)

Prognose

Neuester Wetterbericht von vor 2 Stunden und 24 Minuten, um 11:25 UTC
Gültige Prognose vom 06 um 12 UTC bis 06 um 21 UTC
Wind 6 kt aus Nordwest
Sichtweite 10 km oder mehr
keine Wolken unter 1500 m und keine Kumulonimbus oder Gewitterwolken

TAF: LSZB 061125Z 0612/0621 31006KT CAVOK

Wetterbeobachtungen und Prognosen von mehr als 4000 Flughäfen (METAR und TAF Bericht).

Die verfügbaren Stationen werden durch gelbe und rote Markierungen auf der Karte dargestellt.

Führen Sie die Maus auf sie, um den Namen der Station zu sehen.

Darauf klicken, um die Beobachtung von Wetterbeobachtungen und Prognosen zu sehen.

Um die Karte zu ändern : klicken Sie auf den grünen Tasten mit einem schwarzen Kreuz Zum Vergrößern, auf den grünen Button mit einem Gedankenstrich zu verkleinern, oder auf die grünen Pfeile für benachbarte Karten.


METAR-TAF: